Terminal Aerodrome Forecast
Issued by NWS Pueblo, CO

Home | Current Version | Previous Version | Text Only | Print | Product List | Glossary On
Versions: 1 2 3 4 5 6 7 8 9 10 11 12 13 14 15
000
FTUS45 KPUB 071743
TAFALS
TAF
KALS 071743Z 0718/0818 36012KT P6SM SCT035 BKN150
     FM072100 34012KT P6SM SCT025 BKN050
     FM080600 22008KT P6SM BKN040
     FM080900 VRB04KT P6SM SCT040 BKN200=

USA.gov is the U.S. government's official web portal to all federal, state and local government web resources and services.